sensor_id;sensor_type;location;lat;lon;timestamp;pressure;altitude;pressure_sealevel;temperature
21336;BMP180;69435;52.670;13.544;2024-03-08T00:02:04;101766.00;;;4.50
21336;BMP180;69435;52.670;13.544;2024-03-08T00:04:50;101760.00;;;4.20
21336;BMP180;69435;52.670;13.544;2024-03-08T00:07:40;101760.00;;;4.50
21336;BMP180;69435;52.670;13.544;2024-03-08T00:10:26;101759.00;;;4.40
21336;BMP180;69435;52.670;13.544;2024-03-08T00:13:15;101758.00;;;4.40
21336;BMP180;69435;52.670;13.544;2024-03-08T00:16:00;101761.00;;;4.40
21336;BMP180;69435;52.670;13.544;2024-03-08T00:18:48;101688.00;;;4.30
21336;BMP180;69435;52.670;13.544;2024-03-08T00:21:35;101751.00;;;4.30
21336;BMP180;69435;52.670;13.544;2024-03-08T00:24:21;101752.00;;;4.30
21336;BMP180;69435;52.670;13.544;2024-03-08T00:27:11;101756.00;;;4.30
21336;BMP180;69435;52.670;13.544;2024-03-08T00:30:00;101739.00;;;4.30
21336;BMP180;69435;52.670;13.544;2024-03-08T00:32:46;101756.00;;;4.30
21336;BMP180;69435;52.670;13.544;2024-03-08T00:35:32;101746.00;;;4.20
21336;BMP180;69435;52.670;13.544;2024-03-08T00:38:18;101761.00;;;4.20
21336;BMP180;69435;52.670;13.544;2024-03-08T00:41:04;101753.00;;;4.20
21336;BMP180;69435;52.670;13.544;2024-03-08T00:43:50;101758.00;;;4.20
21336;BMP180;69435;52.670;13.544;2024-03-08T00:46:36;101750.00;;;4.10
21336;BMP180;69435;52.670;13.544;2024-03-08T00:49:22;101756.00;;;4.10
21336;BMP180;69435;52.670;13.544;2024-03-08T00:52:08;101761.00;;;4.10
21336;BMP180;69435;52.670;13.544;2024-03-08T00:54:54;101750.00;;;4.10
21336;BMP180;69435;52.670;13.544;2024-03-08T00:57:41;101745.00;;;4.00
21336;BMP180;69435;52.670;13.544;2024-03-08T01:00:27;101759.00;;;4.00
21336;BMP180;69435;52.670;13.544;2024-03-08T01:03:13;101721.00;;;4.00
21336;BMP180;69435;52.670;13.544;2024-03-08T01:05:59;101743.00;;;4.00
21336;BMP180;69435;52.670;13.544;2024-03-08T01:08:47;101736.00;;;4.00
21336;BMP180;69435;52.670;13.544;2024-03-08T01:11:33;101733.00;;;4.00
21336;BMP180;69435;52.670;13.544;2024-03-08T01:14:21;101728.00;;;3.90
21336;BMP180;69435;52.670;13.544;2024-03-08T01:17:11;101720.00;;;3.90
21336;BMP180;69435;52.670;13.544;2024-03-08T01:19:58;101715.00;;;3.90
21336;BMP180;69435;52.670;13.544;2024-03-08T01:22:44;101723.00;;;3.90
21336;BMP180;69435;52.670;13.544;2024-03-08T01:25:30;101699.00;;;3.90
21336;BMP180;69435;52.670;13.544;2024-03-08T01:28:17;101705.00;;;3.90
21336;BMP180;69435;52.670;13.544;2024-03-08T01:31:03;101706.00;;;3.90
21336;BMP180;69435;52.670;13.544;2024-03-08T01:33:50;101712.00;;;3.80
21336;BMP180;69435;52.670;13.544;2024-03-08T01:36:36;101709.00;;;3.80
21336;BMP180;69435;52.670;13.544;2024-03-08T01:39:23;101703.00;;;3.80
21336;BMP180;69435;52.670;13.544;2024-03-08T01:42:09;101706.00;;;3.80
21336;BMP180;69435;52.670;13.544;2024-03-08T01:44:57;101679.00;;;3.80
21336;BMP180;69435;52.670;13.544;2024-03-08T01:47:43;101682.00;;;3.80
21336;BMP180;69435;52.670;13.544;2024-03-08T01:50:29;101672.00;;;3.80
21336;BMP180;69435;52.670;13.544;2024-03-08T01:53:18;101669.00;;;3.70
21336;BMP180;69435;52.670;13.544;2024-03-08T01:56:06;101681.00;;;3.70
21336;BMP180;69435;52.670;13.544;2024-03-08T01:58:52;101648.00;;;3.80
21336;BMP180;69435;52.670;13.544;2024-03-08T02:01:40;101680.00;;;3.80
21336;BMP180;69435;52.670;13.544;2024-03-08T02:04:26;101665.00;;;3.70
21336;BMP180;69435;52.670;13.544;2024-03-08T02:07:12;101682.00;;;3.70
21336;BMP180;69435;52.670;13.544;2024-03-08T02:09:58;101684.00;;;3.80
21336;BMP180;69435;52.670;13.544;2024-03-08T02:12:47;101662.00;;;3.80
21336;BMP180;69435;52.670;13.544;2024-03-08T02:18:38;101651.00;;;3.70
21336;BMP180;69435;52.670;13.544;2024-03-08T02:21:25;101663.00;;;3.70
21336;BMP180;69435;52.670;13.544;2024-03-08T02:24:12;101668.00;;;3.70
21336;BMP180;69435;52.670;13.544;2024-03-08T02:26:58;101599.00;;;3.70
21336;BMP180;69435;52.670;13.544;2024-03-08T02:29:45;101661.00;;;3.70
21336;BMP180;69435;52.670;13.544;2024-03-08T02:32:31;101665.00;;;3.70
21336;BMP180;69435;52.670;13.544;2024-03-08T02:35:18;101659.00;;;3.70
21336;BMP180;69435;52.670;13.544;2024-03-08T02:38:04;101618.00;;;3.70
21336;BMP180;69435;52.670;13.544;2024-03-08T02:40:53;101649.00;;;3.70
21336;BMP180;69435;52.670;13.544;2024-03-08T02:43:39;101658.00;;;3.70
21336;BMP180;69435;52.670;13.544;2024-03-08T02:46:25;101670.00;;;3.70
21336;BMP180;69435;52.670;13.544;2024-03-08T02:49:11;101654.00;;;3.60
21336;BMP180;69435;52.670;13.544;2024-03-08T02:51:57;101650.00;;;3.60
21336;BMP180;69435;52.670;13.544;2024-03-08T02:54:44;101622.00;;;3.60
21336;BMP180;69435;52.670;13.544;2024-03-08T02:57:32;101654.00;;;3.60
21336;BMP180;69435;52.670;13.544;2024-03-08T03:00:18;101646.00;;;3.60
21336;BMP180;69435;52.670;13.544;2024-03-08T03:03:05;101648.00;;;3.60
21336;BMP180;69435;52.670;13.544;2024-03-08T03:05:52;101640.00;;;3.60
21336;BMP180;69435;52.670;13.544;2024-03-08T03:08:41;101635.00;;;3.60
21336;BMP180;69435;52.670;13.544;2024-03-08T03:11:29;101619.00;;;3.60
21336;BMP180;69435;52.670;13.544;2024-03-08T03:14:15;101646.00;;;3.60
21336;BMP180;69435;52.670;13.544;2024-03-08T03:17:01;101633.00;;;3.60
21336;BMP180;69435;52.670;13.544;2024-03-08T03:19:48;101632.00;;;3.60
21336;BMP180;69435;52.670;13.544;2024-03-08T03:22:34;101629.00;;;3.50
21336;BMP180;69435;52.670;13.544;2024-03-08T03:25:21;101639.00;;;3.50
21336;BMP180;69435;52.670;13.544;2024-03-08T03:28:19;101629.00;;;3.50
21336;BMP180;69435;52.670;13.544;2024-03-08T03:31:08;101640.00;;;3.50
21336;BMP180;69435;52.670;13.544;2024-03-08T03:33:55;101642.00;;;3.50
21336;BMP180;69435;52.670;13.544;2024-03-08T03:36:46;101642.00;;;3.50
21336;BMP180;69435;52.670;13.544;2024-03-08T03:39:32;101638.00;;;3.50
21336;BMP180;69435;52.670;13.544;2024-03-08T03:42:20;101642.00;;;3.40
21336;BMP180;69435;52.670;13.544;2024-03-08T03:45:06;101636.00;;;3.50
21336;BMP180;69435;52.670;13.544;2024-03-08T03:47:52;101628.00;;;3.40
21336;BMP180;69435;52.670;13.544;2024-03-08T03:50:39;101618.00;;;3.40
21336;BMP180;69435;52.670;13.544;2024-03-08T03:53:25;101625.00;;;3.40
21336;BMP180;69435;52.670;13.544;2024-03-08T03:56:11;101625.00;;;3.40
21336;BMP180;69435;52.670;13.544;2024-03-08T03:58:57;101630.00;;;3.40
21336;BMP180;69435;52.670;13.544;2024-03-08T04:01:43;101625.00;;;3.40
21336;BMP180;69435;52.670;13.544;2024-03-08T04:04:29;101627.00;;;3.40
21336;BMP180;69435;52.670;13.544;2024-03-08T04:07:15;101626.00;;;3.40
21336;BMP180;69435;52.670;13.544;2024-03-08T04:10:03;101588.00;;;3.30
21336;BMP180;69435;52.670;13.544;2024-03-08T04:12:51;101624.00;;;3.40
21336;BMP180;69435;52.670;13.544;2024-03-08T04:15:38;101625.00;;;3.30
21336;BMP180;69435;52.670;13.544;2024-03-08T04:18:24;101631.00;;;3.30
21336;BMP180;69435;52.670;13.544;2024-03-08T04:21:10;101631.00;;;3.30
21336;BMP180;69435;52.670;13.544;2024-03-08T04:23:56;101621.00;;;3.30
21336;BMP180;69435;52.670;13.544;2024-03-08T04:26:42;101624.00;;;3.30
21336;BMP180;69435;52.670;13.544;2024-03-08T04:29:29;101630.00;;;3.30
21336;BMP180;69435;52.670;13.544;2024-03-08T04:32:15;101632.00;;;3.30
21336;BMP180;69435;52.670;13.544;2024-03-08T04:35:01;101604.00;;;3.30
21336;BMP180;69435;52.670;13.544;2024-03-08T04:37:47;101596.00;;;3.30
21336;BMP180;69435;52.670;13.544;2024-03-08T04:40:33;101618.00;;;3.30
21336;BMP180;69435;52.670;13.544;2024-03-08T04:43:20;101601.00;;;3.30
21336;BMP180;69435;52.670;13.544;2024-03-08T04:46:06;101618.00;;;3.30
21336;BMP180;69435;52.670;13.544;2024-03-08T04:48:52;101614.00;;;3.30
21336;BMP180;69435;52.670;13.544;2024-03-08T04:51:38;101615.00;;;3.30
21336;BMP180;69435;52.670;13.544;2024-03-08T04:54:24;101619.00;;;3.30
21336;BMP180;69435;52.670;13.544;2024-03-08T04:57:10;101608.00;;;3.30
21336;BMP180;69435;52.670;13.544;2024-03-08T04:59:56;101626.00;;;3.20
21336;BMP180;69435;52.670;13.544;2024-03-08T05:02:44;101612.00;;;3.20
21336;BMP180;69435;52.670;13.544;2024-03-08T05:05:31;101612.00;;;3.20
21336;BMP180;69435;52.670;13.544;2024-03-08T05:08:16;101605.00;;;3.20
21336;BMP180;69435;52.670;13.544;2024-03-08T05:11:04;101607.00;;;3.20
21336;BMP180;69435;52.670;13.544;2024-03-08T05:13:53;101586.00;;;3.20
21336;BMP180;69435;52.670;13.544;2024-03-08T05:16:39;101545.00;;;3.20
21336;BMP180;69435;52.670;13.544;2024-03-08T05:19:26;101584.00;;;3.10
21336;BMP180;69435;52.670;13.544;2024-03-08T05:22:12;101609.00;;;3.10
21336;BMP180;69435;52.670;13.544;2024-03-08T05:24:59;101612.00;;;3.10
21336;BMP180;69435;52.670;13.544;2024-03-08T05:27:45;101603.00;;;3.10
21336;BMP180;69435;52.670;13.544;2024-03-08T05:30:33;101595.00;;;3.10
21336;BMP180;69435;52.670;13.544;2024-03-08T05:33:19;101589.00;;;3.10
21336;BMP180;69435;52.670;13.544;2024-03-08T05:36:05;101597.00;;;3.10
21336;BMP180;69435;52.670;13.544;2024-03-08T05:38:51;101600.00;;;3.10
21336;BMP180;69435;52.670;13.544;2024-03-08T05:41:38;101601.00;;;3.10
21336;BMP180;69435;52.670;13.544;2024-03-08T05:44:27;101590.00;;;3.10
21336;BMP180;69435;52.670;13.544;2024-03-08T05:47:14;101586.00;;;3.10
21336;BMP180;69435;52.670;13.544;2024-03-08T05:50:02;101600.00;;;3.10
21336;BMP180;69435;52.670;13.544;2024-03-08T05:52:48;101585.00;;;3.10
21336;BMP180;69435;52.670;13.544;2024-03-08T05:55:34;101589.00;;;3.10
21336;BMP180;69435;52.670;13.544;2024-03-08T05:58:22;101591.00;;;3.10
21336;BMP180;69435;52.670;13.544;2024-03-08T06:01:08;101598.00;;;3.10
21336;BMP180;69435;52.670;13.544;2024-03-08T06:03:58;101598.00;;;3.10
21336;BMP180;69435;52.670;13.544;2024-03-08T06:06:44;101603.00;;;3.20
21336;BMP180;69435;52.670;13.544;2024-03-08T06:09:30;101604.00;;;3.20
21336;BMP180;69435;52.670;13.544;2024-03-08T06:12:16;101600.00;;;3.20
21336;BMP180;69435;52.670;13.544;2024-03-08T06:15:05;101604.00;;;3.20
21336;BMP180;69435;52.670;13.544;2024-03-08T06:17:51;101616.00;;;3.30
21336;BMP180;69435;52.670;13.544;2024-03-08T06:20:40;101540.00;;;3.30
21336;BMP180;69435;52.670;13.544;2024-03-08T06:23:29;101614.00;;;3.40
21336;BMP180;69435;52.670;13.544;2024-03-08T06:26:15;101612.00;;;3.40
21336;BMP180;69435;52.670;13.544;2024-03-08T06:29:01;101617.00;;;3.50
21336;BMP180;69435;52.670;13.544;2024-03-08T06:31:47;101605.00;;;3.60
21336;BMP180;69435;52.670;13.544;2024-03-08T06:34:33;101607.00;;;3.70
21336;BMP180;69435;52.670;13.544;2024-03-08T06:37:20;101600.00;;;3.70
21336;BMP180;69435;52.670;13.544;2024-03-08T06:40:08;101608.00;;;3.80
21336;BMP180;69435;52.670;13.544;2024-03-08T06:42:55;101599.00;;;3.90
21336;BMP180;69435;52.670;13.544;2024-03-08T06:45:42;101614.00;;;4.00
21336;BMP180;69435;52.670;13.544;2024-03-08T06:48:34;101604.00;;;4.10
21336;BMP180;69435;52.670;13.544;2024-03-08T06:51:21;101606.00;;;4.10
21336;BMP180;69435;52.670;13.544;2024-03-08T06:54:07;101612.00;;;4.20
21336;BMP180;69435;52.670;13.544;2024-03-08T06:56:54;101605.00;;;4.30
21336;BMP180;69435;52.670;13.544;2024-03-08T06:59:40;101598.00;;;4.40
21336;BMP180;69435;52.670;13.544;2024-03-08T07:02:26;101600.00;;;4.60
21336;BMP180;69435;52.670;13.544;2024-03-08T07:05:13;101601.00;;;4.80
21336;BMP180;69435;52.670;13.544;2024-03-08T07:07:59;101605.00;;;5.20
21336;BMP180;69435;52.670;13.544;2024-03-08T07:10:45;101596.00;;;5.80
21336;BMP180;69435;52.670;13.544;2024-03-08T07:13:31;101601.00;;;6.60
21336;BMP180;69435;52.670;13.544;2024-03-08T07:16:18;101596.00;;;7.30
21336;BMP180;69435;52.670;13.544;2024-03-08T07:19:04;101601.00;;;8.20
21336;BMP180;69435;52.670;13.544;2024-03-08T07:21:50;101598.00;;;9.10
21336;BMP180;69435;52.670;13.544;2024-03-08T07:24:37;101597.00;;;10.10
21336;BMP180;69435;52.670;13.544;2024-03-08T07:27:23;101591.00;;;11.10
21336;BMP180;69435;52.670;13.544;2024-03-08T07:30:09;101588.00;;;12.10
21336;BMP180;69435;52.670;13.544;2024-03-08T07:32:56;101581.00;;;13.00
21336;BMP180;69435;52.670;13.544;2024-03-08T07:35:42;101570.00;;;13.80
21336;BMP180;69435;52.670;13.544;2024-03-08T07:38:28;101570.00;;;14.40
21336;BMP180;69435;52.670;13.544;2024-03-08T07:41:15;101571.00;;;15.10
21336;BMP180;69435;52.670;13.544;2024-03-08T07:44:02;101560.00;;;15.80
21336;BMP180;69435;52.670;13.544;2024-03-08T07:46:49;101556.00;;;16.30
21336;BMP180;69435;52.670;13.544;2024-03-08T07:49:36;101565.00;;;16.60
21336;BMP180;69435;52.670;13.544;2024-03-08T07:52:25;101558.00;;;16.80
21336;BMP180;69435;52.670;13.544;2024-03-08T07:55:11;101563.00;;;17.00
21336;BMP180;69435;52.670;13.544;2024-03-08T07:57:57;101560.00;;;17.10
21336;BMP180;69435;52.670;13.544;2024-03-08T08:00:42;101559.00;;;17.30
21336;BMP180;69435;52.670;13.544;2024-03-08T08:03:28;101549.00;;;17.50
21336;BMP180;69435;52.670;13.544;2024-03-08T08:06:18;101552.00;;;17.80
21336;BMP180;69435;52.670;13.544;2024-03-08T08:09:04;101547.00;;;17.70
21336;BMP180;69435;52.670;13.544;2024-03-08T08:11:50;101537.00;;;17.50
21336;BMP180;69435;52.670;13.544;2024-03-08T08:14:36;101556.00;;;17.30
21336;BMP180;69435;52.670;13.544;2024-03-08T08:17:22;101555.00;;;17.30
21336;BMP180;69435;52.670;13.544;2024-03-08T08:20:10;101553.00;;;17.30
21336;BMP180;69435;52.670;13.544;2024-03-08T08:22:57;101544.00;;;17.30
21336;BMP180;69435;52.670;13.544;2024-03-08T08:25:45;101548.00;;;17.10
21336;BMP180;69435;52.670;13.544;2024-03-08T08:28:31;101519.00;;;17.10
21336;BMP180;69435;52.670;13.544;2024-03-08T08:31:17;101548.00;;;17.00
21336;BMP180;69435;52.670;13.544;2024-03-08T08:34:03;101546.00;;;17.00
21336;BMP180;69435;52.670;13.544;2024-03-08T08:36:49;101536.00;;;16.90
21336;BMP180;69435;52.670;13.544;2024-03-08T08:39:35;101545.00;;;16.60
21336;BMP180;69435;52.670;13.544;2024-03-08T08:42:21;101542.00;;;16.50
21336;BMP180;69435;52.670;13.544;2024-03-08T08:45:08;101547.00;;;16.40
21336;BMP180;69435;52.670;13.544;2024-03-08T08:47:54;101536.00;;;16.40
21336;BMP180;69435;52.670;13.544;2024-03-08T08:50:41;101536.00;;;16.30
21336;BMP180;69435;52.670;13.544;2024-03-08T08:53:27;101493.00;;;16.20
21336;BMP180;69435;52.670;13.544;2024-03-08T08:56:14;101535.00;;;16.30
21336;BMP180;69435;52.670;13.544;2024-03-08T08:59:01;101513.00;;;16.40
21336;BMP180;69435;52.670;13.544;2024-03-08T09:01:49;101525.00;;;16.60
21336;BMP180;69435;52.670;13.544;2024-03-08T09:04:37;101529.00;;;16.90
21336;BMP180;69435;52.670;13.544;2024-03-08T09:07:23;101511.00;;;17.00
21336;BMP180;69435;52.670;13.544;2024-03-08T09:10:10;101510.00;;;17.20
21336;BMP180;69435;52.670;13.544;2024-03-08T09:12:57;101496.00;;;17.30
21336;BMP180;69435;52.670;13.544;2024-03-08T09:15:45;101510.00;;;17.40
21336;BMP180;69435;52.670;13.544;2024-03-08T09:18:31;101505.00;;;17.30
21336;BMP180;69435;52.670;13.544;2024-03-08T09:21:17;101504.00;;;17.30
21336;BMP180;69435;52.670;13.544;2024-03-08T09:24:04;101497.00;;;17.30
21336;BMP180;69435;52.670;13.544;2024-03-08T09:26:50;101506.00;;;17.30
21336;BMP180;69435;52.670;13.544;2024-03-08T09:29:37;101503.00;;;17.20
21336;BMP180;69435;52.670;13.544;2024-03-08T09:32:23;101496.00;;;16.90
21336;BMP180;69435;52.670;13.544;2024-03-08T09:35:09;101492.00;;;16.70
21336;BMP180;69435;52.670;13.544;2024-03-08T09:37:56;101490.00;;;16.70
21336;BMP180;69435;52.670;13.544;2024-03-08T09:40:43;101496.00;;;16.70
21336;BMP180;69435;52.670;13.544;2024-03-08T09:43:29;101493.00;;;16.60
21336;BMP180;69435;52.670;13.544;2024-03-08T09:46:18;101487.00;;;16.50
21336;BMP180;69435;52.670;13.544;2024-03-08T09:49:04;101475.00;;;16.50
21336;BMP180;69435;52.670;13.544;2024-03-08T09:51:51;101482.00;;;16.30
21336;BMP180;69435;52.670;13.544;2024-03-08T09:54:38;101491.00;;;16.30
21336;BMP180;69435;52.670;13.544;2024-03-08T09:57:25;101484.00;;;16.30
21336;BMP180;69435;52.670;13.544;2024-03-08T10:00:13;101480.00;;;16.50
21336;BMP180;69435;52.670;13.544;2024-03-08T10:03:09;101475.00;;;16.60
21336;BMP180;69435;52.670;13.544;2024-03-08T10:05:57;101479.00;;;16.70
21336;BMP180;69435;52.670;13.544;2024-03-08T10:08:49;101459.00;;;16.70
21336;BMP180;69435;52.670;13.544;2024-03-08T10:11:37;101475.00;;;16.60
21336;BMP180;69435;52.670;13.544;2024-03-08T10:14:25;101471.00;;;16.40
21336;BMP180;69435;52.670;13.544;2024-03-08T10:17:14;101461.00;;;16.20
21336;BMP180;69435;52.670;13.544;2024-03-08T10:20:01;101453.00;;;16.20
21336;BMP180;69435;52.670;13.544;2024-03-08T10:22:48;101449.00;;;16.30
21336;BMP180;69435;52.670;13.544;2024-03-08T10:25:35;101453.00;;;16.40
21336;BMP180;69435;52.670;13.544;2024-03-08T10:28:22;101457.00;;;16.50
21336;BMP180;69435;52.670;13.544;2024-03-08T10:31:10;101449.00;;;16.30
21336;BMP180;69435;52.670;13.544;2024-03-08T10:33:56;101451.00;;;16.20
21336;BMP180;69435;52.670;13.544;2024-03-08T10:36:44;101442.00;;;16.00
21336;BMP180;69435;52.670;13.544;2024-03-08T10:39:36;101463.00;;;15.90
21336;BMP180;69435;52.670;13.544;2024-03-08T10:42:28;101433.00;;;15.80
21336;BMP180;69435;52.670;13.544;2024-03-08T10:45:23;101438.00;;;15.60
21336;BMP180;69435;52.670;13.544;2024-03-08T10:48:46;101433.00;;;15.70
21336;BMP180;69435;52.670;13.544;2024-03-08T10:51:36;101418.00;;;15.60
21336;BMP180;69435;52.670;13.544;2024-03-08T10:54:26;101431.00;;;15.60
21336;BMP180;69435;52.670;13.544;2024-03-08T10:57:14;101436.00;;;15.60
21336;BMP180;69435;52.670;13.544;2024-03-08T11:00:02;101430.00;;;15.50
21336;BMP180;69435;52.670;13.544;2024-03-08T11:02:49;101424.00;;;15.50
21336;BMP180;69435;52.670;13.544;2024-03-08T11:05:38;101412.00;;;15.40
21336;BMP180;69435;52.670;13.544;2024-03-08T11:08:25;101418.00;;;15.30
21336;BMP180;69435;52.670;13.544;2024-03-08T11:11:32;101403.00;;;15.40
21336;BMP180;69435;52.670;13.544;2024-03-08T11:14:45;101406.00;;;15.30
21336;BMP180;69435;52.670;13.544;2024-03-08T11:20:20;101393.00;;;15.00
21336;BMP180;69435;52.670;13.544;2024-03-08T11:23:08;101377.00;;;15.00
21336;BMP180;69435;52.670;13.544;2024-03-08T11:25:55;101372.00;;;14.90
21336;BMP180;69435;52.670;13.544;2024-03-08T11:28:41;101380.00;;;14.90
21336;BMP180;69435;52.670;13.544;2024-03-08T11:31:27;101384.00;;;15.00
21336;BMP180;69435;52.670;13.544;2024-03-08T11:34:17;101383.00;;;15.00
21336;BMP180;69435;52.670;13.544;2024-03-08T11:37:06;101361.00;;;14.90
21336;BMP180;69435;52.670;13.544;2024-03-08T11:39:55;101333.00;;;14.80
21336;BMP180;69435;52.670;13.544;2024-03-08T11:42:50;101364.00;;;14.90
21336;BMP180;69435;52.670;13.544;2024-03-08T11:45:37;101356.00;;;14.80
21336;BMP180;69435;52.670;13.544;2024-03-08T11:48:23;101349.00;;;14.60
21336;BMP180;69435;52.670;13.544;2024-03-08T11:51:15;101358.00;;;14.60
21336;BMP180;69435;52.670;13.544;2024-03-08T11:54:01;101355.00;;;14.50
21336;BMP180;69435;52.670;13.544;2024-03-08T11:56:47;101341.00;;;14.60
21336;BMP180;69435;52.670;13.544;2024-03-08T11:59:33;101339.00;;;14.60
21336;BMP180;69435;52.670;13.544;2024-03-08T12:02:19;101341.00;;;14.60
21336;BMP180;69435;52.670;13.544;2024-03-08T12:05:06;101331.00;;;14.60
21336;BMP180;69435;52.670;13.544;2024-03-08T12:07:59;101327.00;;;14.60
21336;BMP180;69435;52.670;13.544;2024-03-08T12:10:45;101333.00;;;14.60
21336;BMP180;69435;52.670;13.544;2024-03-08T12:13:33;101327.00;;;14.60
21336;BMP180;69435;52.670;13.544;2024-03-08T12:16:20;101332.00;;;14.50
21336;BMP180;69435;52.670;13.544;2024-03-08T12:19:10;101330.00;;;14.50
21336;BMP180;69435;52.670;13.544;2024-03-08T12:21:56;101312.00;;;14.50
21336;BMP180;69435;52.670;13.544;2024-03-08T12:24:42;101321.00;;;14.60
21336;BMP180;69435;52.670;13.544;2024-03-08T12:27:29;101302.00;;;14.60
21336;BMP180;69435;52.670;13.544;2024-03-08T12:30:26;101306.00;;;14.70
21336;BMP180;69435;52.670;13.544;2024-03-08T12:33:13;101293.00;;;14.70
21336;BMP180;69435;52.670;13.544;2024-03-08T12:35:59;101302.00;;;14.60
21336;BMP180;69435;52.670;13.544;2024-03-08T12:38:48;101301.00;;;14.70
21336;BMP180;69435;52.670;13.544;2024-03-08T12:41:39;101302.00;;;14.50
21336;BMP180;69435;52.670;13.544;2024-03-08T12:44:26;101285.00;;;14.40
21336;BMP180;69435;52.670;13.544;2024-03-08T12:47:14;101300.00;;;14.30
21336;BMP180;69435;52.670;13.544;2024-03-08T12:49:59;101280.00;;;14.20
21336;BMP180;69435;52.670;13.544;2024-03-08T12:52:46;101283.00;;;14.10
21336;BMP180;69435;52.670;13.544;2024-03-08T12:55:32;101283.00;;;14.00
21336;BMP180;69435;52.670;13.544;2024-03-08T12:58:19;101266.00;;;14.00
21336;BMP180;69435;52.670;13.544;2024-03-08T13:01:06;101261.00;;;13.90
21336;BMP180;69435;52.670;13.544;2024-03-08T13:03:55;101277.00;;;13.90
21336;BMP180;69435;52.670;13.544;2024-03-08T13:06:44;101257.00;;;13.80
21336;BMP180;69435;52.670;13.544;2024-03-08T13:09:32;101250.00;;;13.70
21336;BMP180;69435;52.670;13.544;2024-03-08T13:12:23;101262.00;;;13.70
21336;BMP180;69435;52.670;13.544;2024-03-08T13:15:10;101268.00;;;13.50
21336;BMP180;69435;52.670;13.544;2024-03-08T13:18:06;101250.00;;;13.40
21336;BMP180;69435;52.670;13.544;2024-03-08T13:20:55;101245.00;;;13.30
21336;BMP180;69435;52.670;13.544;2024-03-08T13:23:43;101246.00;;;13.20
21336;BMP180;69435;52.670;13.544;2024-03-08T13:26:32;101248.00;;;13.10
21336;BMP180;69435;52.670;13.544;2024-03-08T13:29:20;101249.00;;;13.00
21336;BMP180;69435;52.670;13.544;2024-03-08T13:32:07;101234.00;;;12.80
21336;BMP180;69435;52.670;13.544;2024-03-08T13:34:53;101242.00;;;12.90
21336;BMP180;69435;52.670;13.544;2024-03-08T13:37:43;101229.00;;;12.90
21336;BMP180;69435;52.670;13.544;2024-03-08T13:40:29;101228.00;;;12.90
21336;BMP180;69435;52.670;13.544;2024-03-08T13:43:15;101223.00;;;12.90
21336;BMP180;69435;52.670;13.544;2024-03-08T13:46:01;101224.00;;;12.90
21336;BMP180;69435;52.670;13.544;2024-03-08T13:48:47;101224.00;;;12.80
21336;BMP180;69435;52.670;13.544;2024-03-08T13:51:34;101224.00;;;12.80
21336;BMP180;69435;52.670;13.544;2024-03-08T13:54:20;101203.00;;;12.80
21336;BMP180;69435;52.670;13.544;2024-03-08T13:57:07;101212.00;;;12.80
21336;BMP180;69435;52.670;13.544;2024-03-08T13:59:53;101210.00;;;12.80
21336;BMP180;69435;52.670;13.544;2024-03-08T14:02:39;101207.00;;;12.70
21336;BMP180;69435;52.670;13.544;2024-03-08T14:05:26;101203.00;;;12.70
21336;BMP180;69435;52.670;13.544;2024-03-08T14:08:12;101197.00;;;12.60
21336;BMP180;69435;52.670;13.544;2024-03-08T14:10:58;101185.00;;;12.50
21336;BMP180;69435;52.670;13.544;2024-03-08T14:13:45;101183.00;;;12.50
21336;BMP180;69435;52.670;13.544;2024-03-08T14:16:32;101173.00;;;12.50
21336;BMP180;69435;52.670;13.544;2024-03-08T14:19:19;101185.00;;;12.50
21336;BMP180;69435;52.670;13.544;2024-03-08T14:22:05;101181.00;;;12.50
21336;BMP180;69435;52.670;13.544;2024-03-08T14:24:53;101188.00;;;12.50
21336;BMP180;69435;52.670;13.544;2024-03-08T14:27:41;101168.00;;;12.50
21336;BMP180;69435;52.670;13.544;2024-03-08T14:30:29;101170.00;;;12.40
21336;BMP180;69435;52.670;13.544;2024-03-08T14:33:18;101166.00;;;12.40
21336;BMP180;69435;52.670;13.544;2024-03-08T14:36:05;101159.00;;;12.30
21336;BMP180;69435;52.670;13.544;2024-03-08T14:38:52;101156.00;;;12.30
21336;BMP180;69435;52.670;13.544;2024-03-08T14:41:40;101163.00;;;12.30
21336;BMP180;69435;52.670;13.544;2024-03-08T14:44:26;101159.00;;;12.20
21336;BMP180;69435;52.670;13.544;2024-03-08T14:47:12;101154.00;;;12.10
21336;BMP180;69435;52.670;13.544;2024-03-08T14:49:59;101151.00;;;12.10
21336;BMP180;69435;52.670;13.544;2024-03-08T14:52:46;101156.00;;;12.10
21336;BMP180;69435;52.670;13.544;2024-03-08T14:55:34;101150.00;;;12.10
21336;BMP180;69435;52.670;13.544;2024-03-08T14:58:20;101131.00;;;12.20
21336;BMP180;69435;52.670;13.544;2024-03-08T15:01:07;101145.00;;;12.20
21336;BMP180;69435;52.670;13.544;2024-03-08T15:03:53;101132.00;;;12.20
21336;BMP180;69435;52.670;13.544;2024-03-08T15:06:40;101125.00;;;12.20
21336;BMP180;69435;52.670;13.544;2024-03-08T15:09:28;101129.00;;;12.20
21336;BMP180;69435;52.670;13.544;2024-03-08T15:12:14;101128.00;;;12.20
21336;BMP180;69435;52.670;13.544;2024-03-08T15:15:01;101133.00;;;12.10
21336;BMP180;69435;52.670;13.544;2024-03-08T15:17:47;101124.00;;;12.10
21336;BMP180;69435;52.670;13.544;2024-03-08T15:20:33;101123.00;;;12.10
21336;BMP180;69435;52.670;13.544;2024-03-08T15:23:20;101116.00;;;12.10
21336;BMP180;69435;52.670;13.544;2024-03-08T15:26:06;101120.00;;;12.10
21336;BMP180;69435;52.670;13.544;2024-03-08T15:28:55;101118.00;;;12.10
21336;BMP180;69435;52.670;13.544;2024-03-08T15:31:42;101103.00;;;12.10
21336;BMP180;69435;52.670;13.544;2024-03-08T15:34:29;101115.00;;;12.00
21336;BMP180;69435;52.670;13.544;2024-03-08T15:37:15;101103.00;;;12.00
21336;BMP180;69435;52.670;13.544;2024-03-08T15:40:03;101095.00;;;12.00
21336;BMP180;69435;52.670;13.544;2024-03-08T15:45:40;101084.00;;;11.90
21336;BMP180;69435;52.670;13.544;2024-03-08T15:48:26;101090.00;;;11.80
21336;BMP180;69435;52.670;13.544;2024-03-08T15:51:12;101081.00;;;11.80